createdAt,value
2018-07-16T00:00:58.215Z,15.05
2018-07-16T00:03:33.750Z,14.33
2018-07-16T00:06:09.410Z,14.25
2018-07-16T00:08:44.673Z,11.30
2018-07-16T00:11:20.299Z,13.55
2018-07-16T00:13:55.745Z,10.48
2018-07-16T00:16:31.422Z,13.05
2018-07-16T00:19:07.341Z,14.95
2018-07-16T00:21:43.107Z,13.70
2018-07-16T00:24:18.450Z,14.87
2018-07-16T00:26:54.134Z,11.22
2018-07-16T00:29:29.661Z,11.68
2018-07-16T00:32:05.299Z,15.63
2018-07-16T00:34:40.768Z,13.15
2018-07-16T00:37:16.218Z,15.60
2018-07-16T00:39:51.466Z,14.10
2018-07-16T00:42:27.181Z,10.45
2018-07-16T00:45:02.426Z,16.82
2018-07-16T00:47:38.066Z,14.80
2018-07-16T00:50:13.470Z,14.43
2018-07-16T00:52:49.270Z,13.30
2018-07-16T00:55:24.774Z,11.85
2018-07-16T00:58:00.258Z,14.43
2018-07-16T01:00:36.021Z,12.65
2018-07-16T01:03:11.566Z,12.35
2018-07-16T01:05:47.065Z,12.18
2018-07-16T01:08:22.755Z,13.32
2018-07-16T01:10:58.070Z,10.75
2018-07-16T01:13:33.563Z,11.35
2018-07-16T01:16:09.063Z,13.80
2018-07-16T01:18:44.841Z,12.20
2018-07-16T01:21:20.198Z,12.10
2018-07-16T01:23:55.846Z,11.08
2018-07-16T01:26:31.358Z,11.95
2018-07-16T01:29:07.050Z,13.10
2018-07-16T01:31:42.576Z,11.63
2018-07-16T01:34:18.447Z,12.07
2018-07-16T01:36:53.734Z,17.40
2018-07-16T01:39:29.129Z,13.38
2018-07-16T01:42:04.553Z,11.48
2018-07-16T01:44:40.121Z,11.45
2018-07-16T01:47:15.442Z,12.15
2018-07-16T01:49:50.641Z,12.43
2018-07-16T01:52:26.167Z,12.25
2018-07-16T01:55:01.795Z,13.28
2018-07-16T01:57:37.290Z,13.90
2018-07-16T02:00:13.394Z,13.83
2018-07-16T02:02:48.739Z,15.72
2018-07-16T02:05:24.355Z,11.83
2018-07-16T02:08:00.074Z,12.43
2018-07-16T02:10:35.799Z,12.73
2018-07-16T02:13:11.279Z,12.03
2018-07-16T02:15:46.789Z,12.13
2018-07-16T02:18:22.291Z,15.72
2018-07-16T02:20:57.886Z,16.70
2018-07-16T02:23:33.347Z,13.65
2018-07-16T02:26:08.874Z,15.00
2018-07-16T02:28:43.958Z,13.55
2018-07-16T02:31:19.399Z,12.23
2018-07-16T02:33:54.755Z,20.08
2018-07-16T02:36:30.249Z,19.48
2018-07-16T02:39:05.987Z,13.28
2018-07-16T02:41:41.647Z,13.08
2018-07-16T02:44:16.917Z,13.32
2018-07-16T02:46:52.350Z,12.75
2018-07-16T02:49:27.529Z,12.45
2018-07-16T02:52:03.019Z,15.30
2018-07-16T02:54:38.398Z,14.10
2018-07-16T02:57:13.702Z,13.53
2018-07-16T02:59:49.232Z,16.77
2018-07-16T03:02:24.917Z,12.88
2018-07-16T03:05:00.210Z,12.40
2018-07-16T03:07:35.906Z,13.28
2018-07-16T03:10:11.363Z,12.65
2018-07-16T03:12:47.197Z,17.12
2018-07-16T03:15:22.653Z,11.93
2018-07-16T03:17:58.347Z,14.90
2018-07-16T03:20:33.784Z,12.07
2018-07-16T03:23:09.282Z,13.60
2018-07-16T03:25:44.754Z,12.37
2018-07-16T03:28:20.212Z,10.80
2018-07-16T03:33:59.480Z,10.32
2018-07-16T03:36:34.766Z,9.48
2018-07-16T03:39:10.726Z,10.45
2018-07-16T03:41:46.257Z,11.55
2018-07-16T03:44:21.819Z,13.43
2018-07-16T03:46:57.213Z,10.53
2018-07-16T03:49:32.818Z,10.03
2018-07-16T03:52:08.264Z,10.68
2018-07-16T03:54:43.816Z,12.45
2018-07-16T03:57:19.312Z,10.95
2018-07-16T03:59:55.210Z,11.00
2018-07-16T04:02:30.685Z,12.23
2018-07-16T04:05:06.679Z,15.08
2018-07-16T04:07:42.610Z,10.65
2018-07-16T04:10:18.114Z,10.30
2018-07-16T04:12:53.910Z,10.93
2018-07-16T04:15:29.526Z,11.15
2018-07-16T04:18:09.273Z,10.58
2018-07-16T04:20:44.922Z,11.35
2018-07-16T04:23:20.488Z,17.27
2018-07-16T04:25:56.010Z,10.90
2018-07-16T04:28:31.327Z,11.83
2018-07-16T04:31:06.700Z,10.63
2018-07-16T04:33:42.260Z,11.30
2018-07-16T04:36:17.890Z,11.18
2018-07-16T04:38:53.257Z,11.38
2018-07-16T04:41:28.782Z,9.00
2018-07-16T04:44:03.950Z,13.10
2018-07-16T04:46:39.366Z,13.72
2018-07-16T04:49:14.870Z,11.08
2018-07-16T04:51:50.675Z,12.25
2018-07-16T04:54:26.230Z,16.05
2018-07-16T04:57:02.482Z,11.18
2018-07-16T04:59:38.051Z,9.05
2018-07-16T05:02:14.403Z,8.63
2018-07-16T05:04:49.920Z,12.80
2018-07-16T05:07:26.229Z,7.53
2018-07-16T05:10:01.630Z,7.60
2018-07-16T05:12:37.200Z,7.97
2018-07-16T05:15:12.528Z,6.13
2018-07-16T05:17:48.406Z,6.07
2018-07-16T05:20:24.680Z,6.33
2018-07-16T05:23:00.102Z,6.50
2018-07-16T05:25:35.626Z,5.40
2018-07-16T05:28:11.202Z,6.30
2018-07-16T05:30:46.668Z,6.40
2018-07-16T05:33:22.293Z,5.73
2018-07-16T05:35:57.792Z,6.10
2018-07-16T05:38:33.290Z,8.20
2018-07-16T05:41:08.742Z,7.43
2018-07-16T05:43:44.380Z,5.27
2018-07-16T05:46:19.573Z,5.30
2018-07-16T05:48:55.169Z,4.67
2018-07-16T05:51:30.674Z,8.20
2018-07-16T05:54:06.263Z,6.37
2018-07-16T05:56:41.898Z,10.23
2018-07-16T05:59:17.461Z,7.33
2018-07-16T06:01:53.023Z,4.07
2018-07-16T06:04:28.454Z,3.93
2018-07-16T06:07:03.890Z,4.43
2018-07-16T06:09:39.446Z,9.70
2018-07-16T06:12:14.663Z,6.00
2018-07-16T06:14:50.439Z,6.67
2018-07-16T06:17:25.726Z,5.13
2018-07-16T06:20:01.535Z,8.90
2018-07-16T06:22:36.702Z,6.05
2018-07-16T06:25:12.220Z,3.50
2018-07-16T06:27:47.757Z,7.57
2018-07-16T06:30:23.314Z,5.40
2018-07-16T06:32:58.698Z,6.57
2018-07-16T06:35:34.327Z,3.33
2018-07-16T06:38:09.778Z,2.83
2018-07-16T06:40:45.570Z,3.27
2018-07-16T06:43:20.698Z,7.83
2018-07-16T06:45:56.294Z,3.60
2018-07-16T06:48:31.627Z,5.43
2018-07-16T06:51:07.286Z,2.43
2018-07-16T06:53:42.706Z,3.10
2018-07-16T06:56:18.386Z,3.37
2018-07-16T06:58:54.030Z,8.63
2018-07-16T07:01:29.690Z,5.83
2018-07-16T07:04:05.129Z,2.90
2018-07-16T07:06:40.634Z,3.63
2018-07-16T07:09:16.325Z,2.50
2018-07-16T07:11:51.830Z,2.33
2018-07-16T07:14:27.214Z,3.47
2018-07-16T07:17:02.647Z,3.07
2018-07-16T07:19:38.183Z,2.57
2018-07-16T07:22:13.506Z,5.83
2018-07-16T07:24:49.094Z,4.03
2018-07-16T07:27:24.495Z,2.43
2018-07-16T07:30:00.193Z,1.90
2018-07-16T07:32:35.636Z,2.90
2018-07-16T07:35:11.256Z,2.00
2018-07-16T07:37:46.819Z,2.27
2018-07-16T07:40:22.587Z,5.57
2018-07-16T07:42:57.812Z,4.00
2018-07-16T07:45:33.277Z,7.83
2018-07-16T07:48:08.639Z,3.20
2018-07-16T07:50:44.173Z,9.53
2018-07-16T07:53:19.447Z,2.13
2018-07-16T07:55:54.946Z,2.33
2018-07-16T07:58:30.179Z,3.40
2018-07-16T08:01:06.070Z,2.93
2018-07-16T08:03:41.624Z,2.40
2018-07-16T08:06:17.254Z,2.63
2018-07-16T08:08:52.702Z,2.57
2018-07-16T08:11:28.457Z,3.70
2018-07-16T08:14:03.798Z,2.93
2018-07-16T08:16:39.247Z,7.60
2018-07-16T08:19:14.762Z,3.27
2018-07-16T08:21:50.343Z,3.07
2018-07-16T08:24:25.728Z,4.10
2018-07-16T08:27:01.540Z,4.60
2018-07-16T08:29:37.048Z,5.83
2018-07-16T08:32:12.842Z,3.50
2018-07-16T08:34:48.290Z,3.90
2018-07-16T08:37:23.939Z,2.90
2018-07-16T08:39:59.365Z,5.47
2018-07-16T08:42:35.074Z,3.70
2018-07-16T08:45:10.568Z,4.17
2018-07-16T08:47:46.007Z,5.17
2018-07-16T08:50:21.232Z,4.20
2018-07-16T08:52:57.011Z,7.90
2018-07-16T08:55:32.491Z,4.20
2018-07-16T08:58:08.014Z,7.90
2018-07-16T09:00:43.574Z,5.07
2018-07-16T09:03:19.166Z,3.63
2018-07-16T09:06:00.047Z,7.73
2018-07-16T09:08:36.645Z,3.80
2018-07-16T09:11:12.178Z,4.03
2018-07-16T09:13:47.842Z,6.80
2018-07-16T09:16:23.073Z,4.20
2018-07-16T09:18:58.527Z,5.23
2018-07-16T09:21:34.057Z,3.07
2018-07-16T09:24:09.849Z,6.23
2018-07-16T09:26:45.182Z,13.63
2018-07-16T09:29:20.509Z,4.57
2018-07-16T09:31:55.943Z,3.50
2018-07-16T09:34:31.510Z,7.33
2018-07-16T09:37:07.190Z,9.43
2018-07-16T09:39:42.803Z,5.77
2018-07-16T09:42:18.115Z,5.00
2018-07-16T09:44:53.795Z,3.73
2018-07-16T09:47:28.986Z,3.23
2018-07-16T09:50:04.482Z,4.80
2018-07-16T09:52:40.016Z,4.13
2018-07-16T09:55:15.659Z,5.40
2018-07-16T09:57:51.018Z,7.43
2018-07-16T10:00:31.996Z,7.43
2018-07-16T10:03:07.444Z,5.40
2018-07-16T10:05:43.089Z,3.60
2018-07-16T10:08:18.581Z,5.30
2018-07-16T10:10:53.930Z,4.73
2018-07-16T10:13:29.190Z,4.10
2018-07-16T10:16:04.776Z,3.47
2018-07-16T10:18:40.250Z,3.67
2018-07-16T10:21:16.020Z,5.00
2018-07-16T10:23:51.603Z,4.63
2018-07-16T10:26:27.275Z,3.30
2018-07-16T10:29:02.434Z,3.47
2018-07-16T10:31:37.799Z,3.77
2018-07-16T10:34:13.339Z,5.57
2018-07-16T10:36:48.947Z,4.50
2018-07-16T10:39:24.345Z,8.37
2018-07-16T10:41:59.760Z,4.90
2018-07-16T10:44:35.163Z,3.93
2018-07-16T10:47:10.714Z,4.63
2018-07-16T10:49:46.144Z,4.53
2018-07-16T10:52:21.736Z,6.83
2018-07-16T10:54:57.051Z,8.70
2018-07-16T10:57:32.654Z,6.60
2018-07-16T11:00:07.979Z,3.87
2018-07-16T11:02:44.025Z,4.67
2018-07-16T11:05:19.959Z,5.43
2018-07-16T11:07:55.523Z,7.23
2018-07-16T11:10:30.813Z,3.70
2018-07-16T11:13:06.406Z,3.20
2018-07-16T11:15:41.674Z,3.83
2018-07-16T11:18:17.308Z,5.57
2018-07-16T11:20:53.946Z,4.20
2018-07-16T11:23:29.722Z,8.03
2018-07-16T11:26:05.110Z,4.53
2018-07-16T11:28:40.625Z,7.80
2018-07-16T11:31:16.125Z,4.40
2018-07-16T11:33:51.773Z,3.83
2018-07-16T11:36:27.294Z,3.30
2018-07-16T11:39:02.773Z,4.33
2018-07-16T11:41:38.331Z,4.57
2018-07-16T11:44:14.007Z,5.17
2018-07-16T11:46:49.222Z,10.70
2018-07-16T11:49:24.622Z,8.90
2018-07-16T11:52:00.120Z,5.70
2018-07-16T11:54:35.678Z,4.20
2018-07-16T11:57:10.950Z,7.50
2018-07-16T11:59:46.675Z,4.27
2018-07-16T12:02:22.235Z,3.53
2018-07-16T12:04:57.783Z,3.40
2018-07-16T12:07:33.215Z,4.63
2018-07-16T12:10:08.655Z,5.20
2018-07-16T12:12:44.120Z,3.40
2018-07-16T12:15:19.553Z,3.70
2018-07-16T12:17:54.866Z,3.83
2018-07-16T12:20:30.417Z,4.70
2018-07-16T12:23:05.811Z,4.80
2018-07-16T12:25:41.267Z,4.13
2018-07-16T12:28:16.798Z,3.70
2018-07-16T12:30:52.638Z,7.13
2018-07-16T12:33:27.985Z,5.10
2018-07-16T12:36:03.623Z,4.77
2018-07-16T12:38:39.046Z,9.60
2018-07-16T12:41:14.743Z,6.10
2018-07-16T12:43:49.990Z,9.00
2018-07-16T12:46:25.611Z,4.47
2018-07-16T12:49:00.945Z,5.13
2018-07-16T12:51:36.498Z,3.60
2018-07-16T12:54:11.830Z,3.80
2018-07-16T12:56:47.694Z,12.43
2018-07-16T12:59:23.062Z,4.07
2018-07-16T13:01:58.595Z,3.50
2018-07-16T13:04:33.854Z,3.80
2018-07-16T13:07:09.602Z,3.47
2018-07-16T13:09:45.165Z,5.20
2018-07-16T13:12:20.677Z,4.20
2018-07-16T13:14:56.130Z,3.70
2018-07-16T13:17:31.942Z,4.90
2018-07-16T13:20:07.370Z,4.03
2018-07-16T13:22:42.979Z,6.10
2018-07-16T13:25:18.531Z,3.80
2018-07-16T13:27:54.071Z,4.47
2018-07-16T13:30:29.439Z,3.50
2018-07-16T13:33:04.951Z,6.03
2018-07-16T13:35:40.550Z,4.07
2018-07-16T13:38:16.042Z,4.10
2018-07-16T13:40:51.262Z,3.40
2018-07-16T13:43:26.851Z,5.47
2018-07-16T13:46:02.322Z,4.13
2018-07-16T13:48:37.930Z,3.60
2018-07-16T13:51:13.418Z,3.67
2018-07-16T13:53:48.923Z,4.07
2018-07-16T13:56:24.367Z,9.10
2018-07-16T13:59:00.125Z,3.70
2018-07-16T14:01:35.830Z,3.23
2018-07-16T14:04:11.633Z,3.80
2018-07-16T14:06:47.069Z,6.17
2018-07-16T14:09:22.723Z,6.80
2018-07-16T14:11:57.946Z,6.00
2018-07-16T14:14:33.417Z,3.10
2018-07-16T14:17:08.706Z,4.43
2018-07-16T14:19:44.126Z,3.07
2018-07-16T14:22:19.335Z,3.60
2018-07-16T14:24:54.583Z,5.43
2018-07-16T14:27:29.912Z,9.93
2018-07-16T14:30:05.630Z,5.13
2018-07-16T14:32:41.133Z,3.17
2018-07-16T14:35:16.658Z,3.77
2018-07-16T14:37:51.991Z,5.33
2018-07-16T14:40:27.438Z,5.53
2018-07-16T14:43:02.882Z,4.37
2018-07-16T14:45:38.407Z,4.03
2018-07-16T14:48:13.869Z,3.63
2018-07-16T14:50:49.339Z,3.43
2018-07-16T14:53:24.825Z,3.53
2018-07-16T14:56:00.140Z,3.87
2018-07-16T14:58:35.443Z,4.10
2018-07-16T15:01:11.329Z,3.60
2018-07-16T15:03:46.753Z,4.27
2018-07-16T15:06:22.552Z,4.10
2018-07-16T15:08:58.010Z,3.30
2018-07-16T15:11:34.028Z,3.57
2018-07-16T15:14:09.883Z,3.80
2018-07-16T15:16:45.323Z,4.53
2018-07-16T15:19:21.478Z,3.40
2018-07-16T15:21:56.991Z,3.50
2018-07-16T15:24:32.646Z,3.57
2018-07-16T15:27:08.127Z,7.40
2018-07-16T15:29:43.880Z,4.13
2018-07-16T15:32:19.350Z,4.13
2018-07-16T15:34:55.075Z,4.07
2018-07-16T15:37:30.428Z,8.30
2018-07-16T15:40:06.583Z,6.77
2018-07-16T15:42:42.500Z,4.47
2018-07-16T15:45:18.246Z,3.53
2018-07-16T15:47:53.629Z,3.93
2018-07-16T15:50:29.285Z,9.97
2018-07-16T15:53:04.757Z,12.53
2018-07-16T15:55:40.476Z,6.17
2018-07-16T15:58:15.689Z,6.33
2018-07-16T16:00:51.365Z,4.50
2018-07-16T16:03:26.882Z,4.40
2018-07-16T16:06:02.355Z,4.37
2018-07-16T16:08:37.834Z,4.27
2018-07-16T16:11:13.772Z,4.90
2018-07-16T16:13:49.114Z,4.60
2018-07-16T16:16:24.615Z,4.23
2018-07-16T16:19:00.230Z,3.33
2018-07-16T16:21:35.851Z,6.10
2018-07-16T16:24:11.296Z,6.20
2018-07-16T16:26:46.743Z,4.93
2018-07-16T16:29:22.275Z,5.63
2018-07-16T16:31:57.835Z,5.37
2018-07-16T16:34:33.578Z,6.37
2018-07-16T16:37:09.234Z,3.60
2018-07-16T16:39:44.623Z,4.57
2018-07-16T16:42:20.540Z,4.63
2018-07-16T16:44:55.994Z,9.53
2018-07-16T16:47:31.527Z,4.57
2018-07-16T16:50:06.743Z,5.97
2018-07-16T16:52:42.481Z,8.70
2018-07-16T16:55:17.929Z,4.80
2018-07-16T16:57:53.616Z,7.37
2018-07-16T17:00:28.823Z,3.70
2018-07-16T17:03:04.406Z,5.60
2018-07-16T17:05:39.973Z,8.00
2018-07-16T17:08:15.403Z,6.23
2018-07-16T17:10:51.026Z,12.73
2018-07-16T17:13:26.691Z,10.23
2018-07-16T17:16:01.973Z,13.33
2018-07-16T17:18:37.694Z,4.40
2018-07-16T17:21:13.156Z,5.67
2018-07-16T17:23:48.855Z,4.53
2018-07-16T17:26:24.313Z,4.00
2018-07-16T17:28:59.982Z,3.97
2018-07-16T17:31:35.420Z,4.43
2018-07-16T17:34:11.083Z,4.83
2018-07-16T17:36:46.552Z,8.20
2018-07-16T17:39:22.280Z,5.10
2018-07-16T17:41:57.649Z,9.00
2018-07-16T17:44:33.296Z,4.93
2018-07-16T17:47:08.501Z,4.97
2018-07-16T17:49:43.936Z,7.50
2018-07-16T17:52:19.400Z,6.40
2018-07-16T17:54:54.640Z,5.40
2018-07-16T17:57:29.964Z,4.10
2018-07-16T18:00:05.649Z,5.47
2018-07-16T18:02:41.114Z,4.50
2018-07-16T18:05:16.570Z,5.80
2018-07-16T18:07:51.926Z,6.63
2018-07-16T18:10:27.713Z,6.00
2018-07-16T18:13:03.162Z,4.83
2018-07-16T18:15:38.931Z,7.33
2018-07-16T18:18:14.354Z,4.37
2018-07-16T18:20:50.114Z,4.10
2018-07-16T18:23:25.577Z,4.63
2018-07-16T18:26:01.106Z,5.03
2018-07-16T18:28:36.726Z,4.43
2018-07-16T18:31:12.434Z,9.83
2018-07-16T18:33:47.887Z,8.63
2018-07-16T18:36:23.611Z,6.27
2018-07-16T18:38:59.082Z,7.30
2018-07-16T18:41:34.612Z,4.13
2018-07-16T18:44:10.098Z,4.00
2018-07-16T18:46:45.902Z,25.93
2018-07-16T18:49:21.306Z,5.67
2018-07-16T18:51:56.811Z,5.83
2018-07-16T18:54:32.279Z,7.27
2018-07-16T18:57:07.883Z,7.73
2018-07-16T18:59:43.327Z,6.80
2018-07-16T19:02:19.101Z,8.57
2018-07-16T19:04:54.540Z,13.73
2018-07-16T19:07:30.086Z,8.87
2018-07-16T19:10:06.439Z,5.40
2018-07-16T19:12:42.603Z,6.73
2018-07-16T19:15:25.513Z,9.27
2018-07-16T19:18:01.278Z,4.10
2018-07-16T19:20:36.877Z,5.53
2018-07-16T19:23:12.784Z,10.63
2018-07-16T19:25:48.284Z,5.70
2018-07-16T19:28:23.983Z,5.23
2018-07-16T19:30:59.518Z,6.40
2018-07-16T19:33:35.174Z,6.17
2018-07-16T19:36:10.613Z,11.90
2018-07-16T19:38:46.141Z,6.10
2018-07-16T19:41:21.559Z,5.57
2018-07-16T19:43:56.954Z,8.70
2018-07-16T19:46:32.335Z,5.87
2018-07-16T19:49:07.942Z,5.53
2018-07-16T19:51:43.500Z,5.97
2018-07-16T19:54:18.850Z,9.90
2018-07-16T19:56:54.391Z,8.93
2018-07-16T19:59:29.943Z,14.00
2018-07-16T20:02:05.293Z,6.77
2018-07-16T20:04:40.725Z,8.30
2018-07-16T20:07:16.234Z,8.67
2018-07-16T20:09:52.316Z,10.07
2018-07-16T20:12:31.498Z,5.93
2018-07-16T20:15:09.482Z,5.77
2018-07-16T20:17:44.770Z,6.47
2018-07-16T20:20:20.623Z,7.07
2018-07-16T20:22:56.066Z,6.10
2018-07-16T20:25:31.467Z,6.40
2018-07-16T20:28:06.922Z,7.07
2018-07-16T20:30:42.754Z,9.13
2018-07-16T20:33:18.155Z,10.77
2018-07-16T20:35:53.747Z,10.03
2018-07-16T20:38:29.169Z,7.63
2018-07-16T20:41:04.946Z,15.20
2018-07-16T20:43:40.177Z,12.50
2018-07-16T20:46:15.730Z,8.27
2018-07-16T20:48:51.282Z,19.50
2018-07-16T20:51:26.937Z,19.97
2018-07-16T20:54:02.474Z,14.23
2018-07-16T20:56:37.736Z,17.07
2018-07-16T20:59:13.003Z,11.40
2018-07-16T21:01:48.617Z,18.80
2018-07-16T21:04:24.094Z,8.93
2018-07-16T21:06:59.912Z,12.53
2018-07-16T21:09:35.582Z,15.23
2018-07-16T21:12:11.517Z,10.90
2018-07-16T21:14:46.806Z,18.77
2018-07-16T21:17:22.561Z,6.53
2018-07-16T21:19:58.048Z,9.33
2018-07-16T21:22:33.766Z,12.50
2018-07-16T21:25:10.565Z,9.57
2018-07-16T21:27:45.962Z,16.40
2018-07-16T21:30:21.354Z,20.20
2018-07-16T21:32:56.864Z,26.93
2018-07-16T21:35:32.128Z,32.50
2018-07-16T21:38:07.814Z,26.67
2018-07-16T21:40:43.353Z,33.00
2018-07-16T21:43:19.114Z,35.53
2018-07-16T21:45:54.610Z,15.60
2018-07-16T21:48:30.122Z,12.63
2018-07-16T21:51:05.427Z,9.60
2018-07-16T21:53:40.885Z,24.47
2018-07-16T21:56:16.367Z,40.87
2018-07-16T21:58:51.991Z,14.47
2018-07-16T22:01:27.398Z,37.60
2018-07-16T22:04:03.115Z,23.80
2018-07-16T22:06:38.720Z,39.37
2018-07-16T22:09:14.487Z,26.50
2018-07-16T22:11:50.041Z,11.40
2018-07-16T22:14:25.580Z,14.60
2018-07-16T22:17:01.212Z,9.30
2018-07-16T22:19:37.329Z,14.90
2018-07-16T22:22:12.801Z,42.30
2018-07-16T22:24:48.190Z,33.80
2018-07-16T22:27:23.506Z,26.90
2018-07-16T22:29:58.968Z,40.97
2018-07-16T22:32:34.371Z,31.70
2018-07-16T22:35:09.954Z,32.70
2018-07-16T22:37:45.230Z,49.70
2018-07-16T22:40:20.783Z,28.23
2018-07-16T22:42:56.334Z,17.03
2018-07-16T22:45:32.052Z,26.03
2018-07-16T22:48:07.527Z,51.33
2018-07-16T22:50:43.240Z,34.87
2018-07-16T22:53:18.772Z,17.37
2018-07-16T22:55:54.455Z,38.23
2018-07-16T22:58:29.870Z,25.00
2018-07-16T23:01:05.490Z,31.73
2018-07-16T23:03:40.998Z,19.50
2018-07-16T23:06:16.532Z,20.40
2018-07-16T23:08:51.889Z,15.70
2018-07-16T23:11:27.620Z,10.50
2018-07-16T23:14:03.162Z,20.60
2018-07-16T23:16:38.839Z,20.67
2018-07-16T23:19:15.304Z,14.43
2018-07-16T23:21:51.056Z,19.00
2018-07-16T23:24:26.506Z,10.40
2018-07-16T23:27:02.038Z,13.93
2018-07-16T23:29:37.351Z,13.20
2018-07-16T23:32:12.945Z,12.40
2018-07-16T23:34:49.371Z,10.03
2018-07-16T23:37:24.840Z,16.00
2018-07-16T23:40:00.342Z,13.37
2018-07-16T23:42:36.002Z,20.53
2018-07-16T23:45:11.261Z,17.70
2018-07-16T23:47:46.831Z,16.00
2018-07-16T23:50:22.405Z,16.00
2018-07-16T23:52:57.858Z,16.10
2018-07-16T23:55:33.330Z,17.10
2018-07-16T23:58:08.802Z,21.00
